createdAt,value
2022-08-26T00:00:38.234Z,99.90
2022-08-26T00:03:42.897Z,99.90
2022-08-26T00:06:46.431Z,99.90
2022-08-26T00:09:50.332Z,99.90
2022-08-26T00:12:57.633Z,99.90
2022-08-26T00:16:01.305Z,99.90
2022-08-26T00:19:06.798Z,99.90
2022-08-26T00:22:11.497Z,99.90
2022-08-26T00:25:17.297Z,99.90
2022-08-26T00:28:20.574Z,99.90
2022-08-26T00:31:24.726Z,99.90
2022-08-26T00:34:29.490Z,99.90
2022-08-26T00:37:33.021Z,99.90
2022-08-26T00:40:38.495Z,99.90
2022-08-26T00:43:46.256Z,99.90
2022-08-26T00:46:56.029Z,99.90
2022-08-26T00:50:02.794Z,99.90
2022-08-26T00:53:23.834Z,99.90
2022-08-26T00:56:32.806Z,99.90
2022-08-26T00:59:36.159Z,99.90
2022-08-26T01:02:46.945Z,99.90
2022-08-26T01:05:52.944Z,99.90
2022-08-26T01:08:57.816Z,99.90
2022-08-26T01:12:03.814Z,99.90
2022-08-26T01:15:08.224Z,99.90
2022-08-26T01:18:14.659Z,99.90
2022-08-26T01:21:27.292Z,99.90
2022-08-26T01:24:32.424Z,99.90
2022-08-26T01:27:36.842Z,99.90
2022-08-26T01:30:41.569Z,99.90
2022-08-26T01:33:52.350Z,99.90
2022-08-26T01:37:02.601Z,99.90
2022-08-26T01:40:10.593Z,99.90
2022-08-26T01:43:18.539Z,99.90
2022-08-26T01:46:24.344Z,99.90
2022-08-26T01:49:29.004Z,99.90
2022-08-26T01:52:39.220Z,99.90
2022-08-26T01:55:47.556Z,99.90
2022-08-26T01:58:54.739Z,99.90
2022-08-26T02:01:58.514Z,99.90
2022-08-26T02:05:06.443Z,99.90
2022-08-26T02:08:09.898Z,99.90
2022-08-26T02:11:14.933Z,99.90
2022-08-26T02:14:26.747Z,99.90
2022-08-26T02:17:34.745Z,99.90
2022-08-26T02:20:38.806Z,99.90
2022-08-26T02:23:42.022Z,99.90
2022-08-26T02:26:48.703Z,99.90
2022-08-26T02:29:56.176Z,99.90
2022-08-26T02:33:03.950Z,99.90
2022-08-26T02:36:08.119Z,99.90
2022-08-26T02:39:11.547Z,99.90
2022-08-26T02:42:16.299Z,99.90
2022-08-26T02:45:23.398Z,99.90
2022-08-26T02:48:26.977Z,99.90
2022-08-26T02:51:30.111Z,99.90
2022-08-26T02:54:33.221Z,99.90
2022-08-26T02:57:37.954Z,99.90
2022-08-26T03:00:53.104Z,99.90
2022-08-26T03:03:57.667Z,99.90
2022-08-26T03:07:01.175Z,99.90
2022-08-26T03:10:08.384Z,99.90
2022-08-26T03:13:13.372Z,99.90
2022-08-26T03:16:16.623Z,99.90
2022-08-26T03:19:19.827Z,99.90
2022-08-26T03:22:22.923Z,99.90
2022-08-26T03:25:26.834Z,99.90
2022-08-26T03:28:32.105Z,99.90
2022-08-26T03:31:34.254Z,99.90
2022-08-26T03:34:37.687Z,99.90
2022-08-26T03:37:41.823Z,99.90
2022-08-26T03:40:45.504Z,99.90
2022-08-26T03:43:51.008Z,99.90
2022-08-26T03:46:54.815Z,99.90
2022-08-26T03:49:59.314Z,99.90
2022-08-26T03:53:03.577Z,99.90
2022-08-26T03:56:07.712Z,99.90
2022-08-26T03:59:12.178Z,99.90
2022-08-26T04:02:15.607Z,99.90
2022-08-26T04:05:22.938Z,99.90
2022-08-26T04:08:26.104Z,99.90
2022-08-26T04:11:34.129Z,99.90
2022-08-26T04:14:40.035Z,99.90
2022-08-26T04:17:43.471Z,99.90
2022-08-26T04:20:47.360Z,99.90
2022-08-26T04:23:50.730Z,99.90
2022-08-26T04:26:55.288Z,99.90
2022-08-26T04:29:59.771Z,99.90
2022-08-26T04:33:04.635Z,99.90
2022-08-26T04:36:16.600Z,99.90
2022-08-26T04:39:20.725Z,99.90
2022-08-26T04:42:26.268Z,99.90
2022-08-26T04:45:31.120Z,99.90
2022-08-26T04:48:35.350Z,99.90
2022-08-26T04:51:39.449Z,99.90
2022-08-26T04:54:42.624Z,99.90
2022-08-26T04:57:46.971Z,99.90
2022-08-26T05:00:52.713Z,99.90
2022-08-26T05:03:57.188Z,99.90
2022-08-26T05:07:02.360Z,99.90
2022-08-26T05:10:08.744Z,99.90
2022-08-26T05:13:15.107Z,99.90
2022-08-26T05:16:20.024Z,99.90
2022-08-26T05:19:23.721Z,99.90
2022-08-26T05:22:26.888Z,99.90
2022-08-26T05:25:30.234Z,99.90
2022-08-26T05:28:33.316Z,99.90
2022-08-26T05:31:38.092Z,99.90
2022-08-26T05:34:41.184Z,99.90
2022-08-26T05:37:46.201Z,99.90
2022-08-26T05:40:52.843Z,99.90
2022-08-26T05:43:58.010Z,99.90
2022-08-26T05:47:02.459Z,99.90
2022-08-26T05:50:07.942Z,99.90
2022-08-26T05:53:12.869Z,99.90
2022-08-26T05:56:17.692Z,99.90
2022-08-26T05:59:24.491Z,99.90
2022-08-26T06:02:29.462Z,99.90
2022-08-26T06:05:37.835Z,99.90
2022-08-26T06:08:42.826Z,99.90
2022-08-26T06:11:46.232Z,99.90
2022-08-26T06:14:49.312Z,99.10
2022-08-26T06:17:53.804Z,97.60
2022-08-26T06:20:58.270Z,96.50
2022-08-26T06:24:21.114Z,95.70
2022-08-26T06:27:32.840Z,94.30
2022-08-26T06:30:40.896Z,93.80
2022-08-26T06:33:45.606Z,92.50
2022-08-26T06:36:49.455Z,91.30
2022-08-26T06:39:56.327Z,89.70
2022-08-26T06:43:00.796Z,86.20
2022-08-26T06:46:05.317Z,83.70
2022-08-26T06:49:10.427Z,80.20
2022-08-26T06:52:13.529Z,77.50
2022-08-26T06:55:16.674Z,74.40
2022-08-26T06:58:21.477Z,70.90
2022-08-26T07:01:27.999Z,68.20
2022-08-26T07:04:32.999Z,64.90
2022-08-26T07:07:36.795Z,61.40
2022-08-26T07:10:39.947Z,59.10
2022-08-26T07:13:43.466Z,56.50
2022-08-26T07:16:47.610Z,54.80
2022-08-26T07:19:52.290Z,53.40
2022-08-26T07:22:55.965Z,52.00
2022-08-26T07:25:59.162Z,50.00
2022-08-26T07:29:02.484Z,48.70
2022-08-26T07:32:06.481Z,47.50
2022-08-26T07:35:11.407Z,45.80
2022-08-26T07:38:15.143Z,44.10
2022-08-26T07:41:20.478Z,42.80
2022-08-26T07:44:24.129Z,41.60
2022-08-26T07:47:27.771Z,40.20
2022-08-26T07:50:49.268Z,38.70
2022-08-26T07:53:54.284Z,37.80
2022-08-26T07:56:57.741Z,36.30
2022-08-26T08:00:01.400Z,34.80
2022-08-26T08:03:06.881Z,34.00
2022-08-26T08:06:11.503Z,32.90
2022-08-26T08:09:16.158Z,31.50
2022-08-26T08:12:20.302Z,30.70
2022-08-26T08:15:27.902Z,30.00
2022-08-26T08:18:31.060Z,29.90
2022-08-26T08:21:35.555Z,29.00
2022-08-26T08:24:39.574Z,28.40
2022-08-26T08:27:45.847Z,28.00
2022-08-26T08:30:49.129Z,27.80
2022-08-26T08:33:52.904Z,27.40
2022-08-26T08:36:57.887Z,26.80
2022-08-26T08:40:01.101Z,26.90
2022-08-26T08:43:07.227Z,26.20
2022-08-26T08:46:13.445Z,25.60
2022-08-26T08:49:17.617Z,25.20
2022-08-26T08:52:29.940Z,24.90
2022-08-26T08:55:43.646Z,24.60
2022-08-26T08:58:57.313Z,24.20
2022-08-26T09:02:07.075Z,24.10
2022-08-26T09:05:17.847Z,24.10
2022-08-26T09:08:27.523Z,24.30
2022-08-26T09:11:31.464Z,23.90
2022-08-26T09:14:35.299Z,23.50
2022-08-26T09:17:47.595Z,23.60
2022-08-26T09:20:56.998Z,23.40
2022-08-26T09:24:01.712Z,23.00
2022-08-26T09:27:05.194Z,23.60
2022-08-26T09:30:11.484Z,24.10
2022-08-26T09:33:19.493Z,24.50
2022-08-26T09:36:37.756Z,25.20
2022-08-26T09:39:44.125Z,26.30
2022-08-26T09:42:48.189Z,27.80
2022-08-26T09:45:58.387Z,28.80
2022-08-26T09:49:25.205Z,29.90
2022-08-26T09:52:28.897Z,31.90
2022-08-26T09:55:33.440Z,34.20
2022-08-26T09:58:39.276Z,36.10
2022-08-26T10:01:45.675Z,38.10
2022-08-26T10:04:54.196Z,39.30
2022-08-26T10:07:58.277Z,40.00
2022-08-26T10:11:12.338Z,40.30
2022-08-26T10:14:20.639Z,40.90
2022-08-26T10:17:29.146Z,41.20
2022-08-26T10:20:39.181Z,42.10
2022-08-26T10:23:46.048Z,43.00
2022-08-26T10:27:01.895Z,43.20
2022-08-26T10:30:11.092Z,44.40
2022-08-26T10:33:17.988Z,45.50
2022-08-26T10:37:05.039Z,44.80
2022-08-26T10:40:08.722Z,45.50
2022-08-26T10:43:20.264Z,46.00
2022-08-26T10:46:28.450Z,45.60
2022-08-26T10:49:31.734Z,44.00
2022-08-26T10:52:45.691Z,44.10
2022-08-26T10:56:02.040Z,42.80
2022-08-26T10:59:13.085Z,42.40
2022-08-26T11:02:25.278Z,40.50
2022-08-26T11:05:28.425Z,40.20
2022-08-26T11:08:33.416Z,40.10
2022-08-26T11:11:49.520Z,39.20
2022-08-26T11:14:59.094Z,38.80
2022-08-26T11:18:04.839Z,39.40
2022-08-26T11:21:47.669Z,39.80
2022-08-26T11:25:12.009Z,39.20
2022-08-26T11:28:35.469Z,38.30
2022-08-26T11:31:56.846Z,38.90
2022-08-26T11:35:00.911Z,40.00
2022-08-26T11:38:17.144Z,40.00
2022-08-26T11:41:29.139Z,39.60
2022-08-26T11:44:40.821Z,40.20
2022-08-26T11:47:46.594Z,40.60
2022-08-26T11:50:55.315Z,40.30
2022-08-26T11:54:11.671Z,40.10
2022-08-26T11:57:14.972Z,40.10
2022-08-26T12:00:23.110Z,40.00
2022-08-26T12:03:37.673Z,39.50
2022-08-26T12:06:46.867Z,39.30
2022-08-26T12:09:56.289Z,39.20
2022-08-26T12:13:01.351Z,38.80
2022-08-26T12:16:04.951Z,38.90
2022-08-26T12:19:27.373Z,38.80
2022-08-26T12:22:34.568Z,39.20
2022-08-26T12:25:40.677Z,39.10
2022-08-26T12:28:48.458Z,40.20
2022-08-26T12:31:51.643Z,40.30
2022-08-26T12:34:56.527Z,40.50
2022-08-26T12:38:00.254Z,41.00
2022-08-26T12:41:03.431Z,40.90
2022-08-26T12:44:06.736Z,40.80
2022-08-26T12:47:20.478Z,41.10
2022-08-26T12:50:39.645Z,41.10
2022-08-26T12:53:44.798Z,42.20
2022-08-26T12:56:48.121Z,42.00
2022-08-26T12:59:55.235Z,41.30
2022-08-26T13:02:58.734Z,41.20
2022-08-26T13:06:16.374Z,41.70
2022-08-26T13:09:32.174Z,42.60
2022-08-26T13:12:38.251Z,42.50
2022-08-26T13:15:41.595Z,42.60
2022-08-26T13:18:44.719Z,43.00
2022-08-26T13:21:53.038Z,42.80
2022-08-26T13:24:58.033Z,43.30
2022-08-26T13:28:01.122Z,43.80
2022-08-26T13:31:05.315Z,43.90
2022-08-26T13:34:10.358Z,43.00
2022-08-26T13:37:15.461Z,43.60
2022-08-26T13:40:18.760Z,44.50
2022-08-26T13:43:21.939Z,44.90
2022-08-26T13:46:25.172Z,44.70
2022-08-26T13:49:28.451Z,45.00
2022-08-26T13:52:33.008Z,45.60
2022-08-26T13:55:36.190Z,45.30
2022-08-26T13:58:39.354Z,46.30
2022-08-26T14:01:42.518Z,46.30
2022-08-26T14:04:45.650Z,45.70
2022-08-26T14:07:50.234Z,45.90
2022-08-26T14:10:53.408Z,44.90
2022-08-26T14:13:56.745Z,45.30
2022-08-26T14:17:00.538Z,46.50
2022-08-26T14:20:06.032Z,46.20
2022-08-26T14:23:14.234Z,46.40
2022-08-26T14:26:29.429Z,47.20
2022-08-26T14:29:33.039Z,47.70
2022-08-26T14:32:36.984Z,47.50
2022-08-26T14:35:40.291Z,47.80
2022-08-26T14:38:52.614Z,48.20
2022-08-26T14:41:57.288Z,47.40
2022-08-26T14:45:03.242Z,47.80
2022-08-26T14:48:07.702Z,48.80
2022-08-26T14:51:10.945Z,49.10
2022-08-26T14:54:16.697Z,48.70
2022-08-26T14:57:19.924Z,48.50
2022-08-26T15:00:23.392Z,48.40
2022-08-26T15:03:28.010Z,48.70
2022-08-26T15:06:32.133Z,48.60
2022-08-26T15:09:38.019Z,48.30
2022-08-26T15:12:41.731Z,48.70
2022-08-26T15:15:44.926Z,49.10
2022-08-26T15:18:48.398Z,49.10
2022-08-26T15:21:52.131Z,49.00
2022-08-26T15:24:57.943Z,48.70
2022-08-26T15:28:01.505Z,48.70
2022-08-26T15:31:04.699Z,48.30
2022-08-26T15:34:14.413Z,48.60
2022-08-26T15:37:19.593Z,49.00
2022-08-26T15:40:24.467Z,49.20
2022-08-26T15:43:29.090Z,49.30
2022-08-26T15:46:34.485Z,49.10
2022-08-26T15:49:38.735Z,49.60
2022-08-26T15:52:42.017Z,50.20
2022-08-26T15:55:46.919Z,49.60
2022-08-26T15:58:51.071Z,49.70
2022-08-26T16:01:54.270Z,49.60
2022-08-26T16:04:57.478Z,49.40
2022-08-26T16:08:03.639Z,48.80
2022-08-26T16:11:08.283Z,49.00
2022-08-26T16:14:11.459Z,48.90
2022-08-26T16:17:14.637Z,49.50
2022-08-26T16:20:17.945Z,49.60
2022-08-26T16:23:21.186Z,50.00
2022-08-26T16:26:27.964Z,50.10
2022-08-26T16:29:32.610Z,50.60
2022-08-26T16:32:35.770Z,51.10
2022-08-26T16:35:39.636Z,51.60
2022-08-26T16:38:47.796Z,51.90
2022-08-26T16:41:52.329Z,52.30
2022-08-26T16:44:55.571Z,52.40
2022-08-26T16:47:59.610Z,52.80
2022-08-26T16:51:02.753Z,53.00
2022-08-26T16:54:07.037Z,53.20
2022-08-26T16:57:13.427Z,53.40
2022-08-26T17:00:20.043Z,53.70
2022-08-26T17:03:23.207Z,53.80
2022-08-26T17:06:26.388Z,54.30
2022-08-26T17:09:29.636Z,54.70
2022-08-26T17:12:34.305Z,55.20
2022-08-26T17:15:37.532Z,55.50
2022-08-26T17:18:40.768Z,56.10
2022-08-26T17:21:44.160Z,56.40
2022-08-26T17:24:47.345Z,56.90
2022-08-26T17:27:52.581Z,57.80
2022-08-26T17:30:58.659Z,58.30
2022-08-26T17:34:01.959Z,58.80
2022-08-26T17:37:05.383Z,59.10
2022-08-26T17:40:12.085Z,59.30
2022-08-26T17:43:17.321Z,60.00
2022-08-26T17:46:20.567Z,60.60
2022-08-26T17:49:23.712Z,61.40
2022-08-26T17:52:26.876Z,63.00
2022-08-26T17:55:30.175Z,64.30
2022-08-26T17:58:34.825Z,65.40
2022-08-26T18:01:38.981Z,65.50
2022-08-26T18:04:42.108Z,65.90
2022-08-26T18:07:45.951Z,67.00
2022-08-26T18:10:49.309Z,67.40
2022-08-26T18:13:54.246Z,67.70
2022-08-26T18:16:57.549Z,68.50
2022-08-26T18:20:00.689Z,69.30
2022-08-26T18:23:03.893Z,69.20
2022-08-26T18:26:07.266Z,69.90
2022-08-26T18:29:18.224Z,70.80
2022-08-26T18:32:21.353Z,70.90
2022-08-26T18:35:28.297Z,71.10
2022-08-26T18:38:31.459Z,71.90
2022-08-26T18:41:45.478Z,72.30
2022-08-26T18:44:52.915Z,72.80
2022-08-26T18:47:56.055Z,73.20
2022-08-26T18:51:00.175Z,73.70
2022-08-26T18:54:06.364Z,74.00
2022-08-26T18:57:09.864Z,74.60
2022-08-26T19:00:15.512Z,74.90
2022-08-26T19:03:19.309Z,75.30
2022-08-26T19:06:24.668Z,75.90
2022-08-26T19:09:28.204Z,76.60
2022-08-26T19:12:31.850Z,77.70
2022-08-26T19:15:40.512Z,78.60
2022-08-26T19:18:43.628Z,79.40
2022-08-26T19:21:48.057Z,80.10
2022-08-26T19:24:51.721Z,81.00
2022-08-26T19:27:55.171Z,81.40
2022-08-26T19:31:00.518Z,82.20
2022-08-26T19:34:05.307Z,83.00
2022-08-26T19:37:08.620Z,83.60
2022-08-26T19:40:12.754Z,84.30
2022-08-26T19:43:16.295Z,85.80
2022-08-26T19:46:24.124Z,85.50
2022-08-26T19:49:27.665Z,86.30
2022-08-26T19:52:31.142Z,87.00
2022-08-26T19:55:34.890Z,87.70
2022-08-26T19:58:38.382Z,88.60
2022-08-26T20:01:42.911Z,89.60
2022-08-26T20:04:46.514Z,90.00
2022-08-26T20:07:50.354Z,90.30
2022-08-26T20:10:54.294Z,90.50
2022-08-26T20:13:57.853Z,90.90
2022-08-26T20:17:03.043Z,91.10
2022-08-26T20:20:32.742Z,91.40
2022-08-26T20:23:37.411Z,91.60
2022-08-26T20:26:42.779Z,91.90
2022-08-26T20:29:46.016Z,92.10
2022-08-26T20:32:50.699Z,92.40
2022-08-26T20:35:53.926Z,92.80
2022-08-26T20:38:57.775Z,93.20
2022-08-26T20:42:01.103Z,93.50
2022-08-26T20:45:04.745Z,93.80
2022-08-26T20:48:09.368Z,94.10
2022-08-26T20:51:12.740Z,94.50
2022-08-26T20:54:15.917Z,94.70
2022-08-26T20:57:19.137Z,95.10
2022-08-26T21:00:26.598Z,95.30
2022-08-26T21:03:33.360Z,95.50
2022-08-26T21:06:38.322Z,97.40
2022-08-26T21:09:41.549Z,97.40
2022-08-26T21:12:45.363Z,97.30
2022-08-26T21:15:48.630Z,97.40
2022-08-26T21:18:53.486Z,97.60
2022-08-26T21:21:56.776Z,97.60
2022-08-26T21:24:59.920Z,97.60
2022-08-26T21:28:03.124Z,97.80
2022-08-26T21:31:07.734Z,97.70
2022-08-26T21:34:12.262Z,97.80
2022-08-26T21:37:16.584Z,97.90
2022-08-26T21:40:20.320Z,98.00
2022-08-26T21:43:33.669Z,98.00
2022-08-26T21:46:38.502Z,98.20
2022-08-26T21:49:44.146Z,98.30
2022-08-26T21:52:47.425Z,98.40
2022-08-26T21:55:50.974Z,98.20
2022-08-26T21:58:55.746Z,98.40
2022-08-26T22:01:59.540Z,98.80
2022-08-26T22:05:04.739Z,98.90
2022-08-26T22:08:07.987Z,98.80
2022-08-26T22:11:11.675Z,99.00
2022-08-26T22:14:15.610Z,99.00
2022-08-26T22:17:18.931Z,99.40
2022-08-26T22:20:23.930Z,99.50
2022-08-26T22:23:27.406Z,99.60
2022-08-26T22:26:33.270Z,99.60
2022-08-26T22:29:36.737Z,99.90
2022-08-26T22:32:40.470Z,99.90
2022-08-26T22:35:46.872Z,99.90
2022-08-26T22:38:50.967Z,99.90
2022-08-26T22:41:55.318Z,99.90
2022-08-26T22:44:58.474Z,99.90
2022-08-26T22:48:04.746Z,99.90
2022-08-26T22:51:09.511Z,99.90
2022-08-26T22:54:12.997Z,99.90
2022-08-26T22:57:16.270Z,99.90
2022-08-26T23:00:19.773Z,99.90
2022-08-26T23:03:35.685Z,99.90
2022-08-26T23:06:47.500Z,99.90
2022-08-26T23:09:51.180Z,99.90
2022-08-26T23:12:54.674Z,99.90
2022-08-26T23:16:02.324Z,99.90
2022-08-26T23:19:05.949Z,99.90
2022-08-26T23:22:10.446Z,99.90
2022-08-26T23:25:14.070Z,99.90
2022-08-26T23:28:17.649Z,99.90
2022-08-26T23:31:20.914Z,99.90
2022-08-26T23:34:41.522Z,99.90
2022-08-26T23:37:48.122Z,99.90
2022-08-26T23:40:52.153Z,99.90
2022-08-26T23:43:55.473Z,99.90
2022-08-26T23:46:59.450Z,99.90
2022-08-26T23:50:02.662Z,99.90
2022-08-26T23:53:06.159Z,99.90
2022-08-26T23:56:15.580Z,99.90
2022-08-26T23:59:18.773Z,99.90
